Gendringen, Netherlands
Current Conditions -  °F | °C
As of 9:20 PM on Monday 22 Dec 2014 (Local Time) from EDLV Reporting Station
Broken Clouds Broken Clouds  
Wind Chill: 55°   Ceiling: 2000
Heat Index: 55°   Visibility: 6mi
Dew Point: 50°   Wind: 22mph
Humidity: 82%   Direction: 250°WSW
Pressure: 30.03"   Gusts: 36mph
Location:  51.87°N, 6.38°E
Report Text: EDLV 222020Z 25019G31KT 210V270 9999 BKN020 13/10 Q1017
Loading
Personal Weather Stations






























Interactive Weather Map New forecast layout! Learn more

10-Day Weather Forecast

Advertisements
Track Severe Weather on mobile